sensor_id;sensor_type;location;lat;lon;timestamp;temperature;humidity
14095;DHT22;18096;48.142;16.290;2023-06-10T00:01:13;17.30;99.90
14095;DHT22;18096;48.142;16.290;2023-06-10T00:03:38;17.30;99.90
14095;DHT22;18096;48.142;16.290;2023-06-10T00:06:04;17.30;99.90
14095;DHT22;18096;48.142;16.290;2023-06-10T00:08:30;17.30;99.90
14095;DHT22;18096;48.142;16.290;2023-06-10T00:10:57;17.30;99.90
14095;DHT22;18096;48.142;16.290;2023-06-10T00:13:22;17.30;99.90
14095;DHT22;18096;48.142;16.290;2023-06-10T00:15:48;17.20;99.90
14095;DHT22;18096;48.142;16.290;2023-06-10T00:18:13;17.20;99.90
14095;DHT22;18096;48.142;16.290;2023-06-10T00:20:39;17.20;99.90
14095;DHT22;18096;48.142;16.290;2023-06-10T00:23:06;17.20;99.90
14095;DHT22;18096;48.142;16.290;2023-06-10T00:25:33;17.20;99.90
14095;DHT22;18096;48.142;16.290;2023-06-10T00:27:59;17.20;99.90
14095;DHT22;18096;48.142;16.290;2023-06-10T00:30:25;17.20;99.90
14095;DHT22;18096;48.142;16.290;2023-06-10T00:32:50;17.20;99.90
14095;DHT22;18096;48.142;16.290;2023-06-10T00:35:16;17.20;99.90
14095;DHT22;18096;48.142;16.290;2023-06-10T00:37:42;17.20;99.90
14095;DHT22;18096;48.142;16.290;2023-06-10T00:40:08;17.20;99.90
14095;DHT22;18096;48.142;16.290;2023-06-10T00:42:36;17.20;99.90
14095;DHT22;18096;48.142;16.290;2023-06-10T00:45:02;17.20;99.90
14095;DHT22;18096;48.142;16.290;2023-06-10T00:47:29;17.20;99.90
14095;DHT22;18096;48.142;16.290;2023-06-10T00:49:55;17.10;99.90
14095;DHT22;18096;48.142;16.290;2023-06-10T00:52:22;17.10;99.90
14095;DHT22;18096;48.142;16.290;2023-06-10T00:54:50;17.00;99.90
14095;DHT22;18096;48.142;16.290;2023-06-10T00:57:16;17.10;99.90
14095;DHT22;18096;48.142;16.290;2023-06-10T00:59:44;17.10;99.90
14095;DHT22;18096;48.142;16.290;2023-06-10T01:02:12;17.10;99.90
14095;DHT22;18096;48.142;16.290;2023-06-10T01:04:38;17.00;99.90
14095;DHT22;18096;48.142;16.290;2023-06-10T01:07:25;17.00;99.90
14095;DHT22;18096;48.142;16.290;2023-06-10T01:10:02;17.00;99.90
14095;DHT22;18096;48.142;16.290;2023-06-10T01:12:46;16.90;99.90
14095;DHT22;18096;48.142;16.290;2023-06-10T01:15:16;17.00;99.90
14095;DHT22;18096;48.142;16.290;2023-06-10T01:17:58;16.90;99.90
14095;DHT22;18096;48.142;16.290;2023-06-10T01:20:25;17.00;99.90
14095;DHT22;18096;48.142;16.290;2023-06-10T01:22:53;17.00;99.90
14095;DHT22;18096;48.142;16.290;2023-06-10T01:25:20;17.00;99.90
14095;DHT22;18096;48.142;16.290;2023-06-10T01:27:54;17.00;99.90
14095;DHT22;18096;48.142;16.290;2023-06-10T01:30:27;17.00;99.90
14095;DHT22;18096;48.142;16.290;2023-06-10T01:32:55;16.90;99.90
14095;DHT22;18096;48.142;16.290;2023-06-10T01:35:25;16.90;99.90
14095;DHT22;18096;48.142;16.290;2023-06-10T01:37:53;16.90;99.90
14095;DHT22;18096;48.142;16.290;2023-06-10T01:40:20;16.90;99.90
14095;DHT22;18096;48.142;16.290;2023-06-10T01:42:46;16.80;99.90
14095;DHT22;18096;48.142;16.290;2023-06-10T01:45:12;16.80;99.90
14095;DHT22;18096;48.142;16.290;2023-06-10T01:47:37;16.90;99.90
14095;DHT22;18096;48.142;16.290;2023-06-10T01:50:03;16.90;99.90
14095;DHT22;18096;48.142;16.290;2023-06-10T01:52:29;16.80;99.90
14095;DHT22;18096;48.142;16.290;2023-06-10T01:54:55;16.90;99.90
14095;DHT22;18096;48.142;16.290;2023-06-10T01:57:20;16.90;99.90
14095;DHT22;18096;48.142;16.290;2023-06-10T01:59:46;17.00;99.90
14095;DHT22;18096;48.142;16.290;2023-06-10T02:02:12;16.90;99.90
14095;DHT22;18096;48.142;16.290;2023-06-10T02:04:37;17.00;99.90
14095;DHT22;18096;48.142;16.290;2023-06-10T02:07:03;16.90;99.90
14095;DHT22;18096;48.142;16.290;2023-06-10T02:09:30;16.90;99.90
14095;DHT22;18096;48.142;16.290;2023-06-10T02:11:56;17.00;99.90
14095;DHT22;18096;48.142;16.290;2023-06-10T02:14:22;16.90;99.90
14095;DHT22;18096;48.142;16.290;2023-06-10T02:16:48;17.00;99.90
14095;DHT22;18096;48.142;16.290;2023-06-10T02:19:14;17.00;99.90
14095;DHT22;18096;48.142;16.290;2023-06-10T02:21:39;17.10;99.90
14095;DHT22;18096;48.142;16.290;2023-06-10T02:24:05;17.10;99.90
14095;DHT22;18096;48.142;16.290;2023-06-10T02:26:31;17.10;99.90
14095;DHT22;18096;48.142;16.290;2023-06-10T02:28:57;17.10;99.90
14095;DHT22;18096;48.142;16.290;2023-06-10T02:31:22;17.10;99.90
14095;DHT22;18096;48.142;16.290;2023-06-10T02:33:50;17.10;99.90
14095;DHT22;18096;48.142;16.290;2023-06-10T02:36:16;17.20;99.90
14095;DHT22;18096;48.142;16.290;2023-06-10T02:38:42;17.10;99.90
14095;DHT22;18096;48.142;16.290;2023-06-10T02:41:07;17.20;99.90
14095;DHT22;18096;48.142;16.290;2023-06-10T02:43:33;17.20;99.90
14095;DHT22;18096;48.142;16.290;2023-06-10T02:45:59;17.20;99.90
14095;DHT22;18096;48.142;16.290;2023-06-10T02:48:24;17.20;99.90
14095;DHT22;18096;48.142;16.290;2023-06-10T02:50:50;17.20;99.90
14095;DHT22;18096;48.142;16.290;2023-06-10T02:53:16;17.20;99.90
14095;DHT22;18096;48.142;16.290;2023-06-10T02:55:42;17.20;99.90
14095;DHT22;18096;48.142;16.290;2023-06-10T02:58:08;17.30;99.90
14095;DHT22;18096;48.142;16.290;2023-06-10T03:00:33;17.30;99.90
14095;DHT22;18096;48.142;16.290;2023-06-10T03:02:59;17.30;99.90
14095;DHT22;18096;48.142;16.290;2023-06-10T03:05:28;17.30;99.90
14095;DHT22;18096;48.142;16.290;2023-06-10T03:07:53;17.30;99.90
14095;DHT22;18096;48.142;16.290;2023-06-10T03:10:19;17.30;99.90
14095;DHT22;18096;48.142;16.290;2023-06-10T03:12:45;17.30;99.90
14095;DHT22;18096;48.142;16.290;2023-06-10T03:15:10;17.30;99.90
14095;DHT22;18096;48.142;16.290;2023-06-10T03:17:36;17.30;99.90
14095;DHT22;18096;48.142;16.290;2023-06-10T03:20:04;17.30;99.90
14095;DHT22;18096;48.142;16.290;2023-06-10T03:22:31;17.30;99.90
14095;DHT22;18096;48.142;16.290;2023-06-10T03:24:56;17.30;99.90
14095;DHT22;18096;48.142;16.290;2023-06-10T03:27:22;17.40;99.90
14095;DHT22;18096;48.142;16.290;2023-06-10T03:29:48;17.30;99.90
14095;DHT22;18096;48.142;16.290;2023-06-10T03:32:14;17.40;99.90
14095;DHT22;18096;48.142;16.290;2023-06-10T03:34:40;17.40;99.90
14095;DHT22;18096;48.142;16.290;2023-06-10T03:37:06;17.40;99.90
14095;DHT22;18096;48.142;16.290;2023-06-10T03:39:32;17.40;99.90
14095;DHT22;18096;48.142;16.290;2023-06-10T03:41:58;17.40;99.90
14095;DHT22;18096;48.142;16.290;2023-06-10T03:44:26;17.40;99.90
14095;DHT22;18096;48.142;16.290;2023-06-10T03:46:54;17.40;99.90
14095;DHT22;18096;48.142;16.290;2023-06-10T03:49:20;17.50;99.90
14095;DHT22;18096;48.142;16.290;2023-06-10T03:51:45;17.50;99.90
14095;DHT22;18096;48.142;16.290;2023-06-10T03:54:11;17.50;99.90
14095;DHT22;18096;48.142;16.290;2023-06-10T03:56:36;17.50;99.90
14095;DHT22;18096;48.142;16.290;2023-06-10T03:59:02;17.50;99.90
14095;DHT22;18096;48.142;16.290;2023-06-10T04:01:28;17.50;99.90
14095;DHT22;18096;48.142;16.290;2023-06-10T04:03:53;17.50;99.90
14095;DHT22;18096;48.142;16.290;2023-06-10T04:06:20;17.50;99.90
14095;DHT22;18096;48.142;16.290;2023-06-10T04:08:48;17.50;99.90
14095;DHT22;18096;48.142;16.290;2023-06-10T04:11:14;17.50;99.90
14095;DHT22;18096;48.142;16.290;2023-06-10T04:13:39;17.60;99.90
14095;DHT22;18096;48.142;16.290;2023-06-10T04:16:05;17.60;99.90
14095;DHT22;18096;48.142;16.290;2023-06-10T04:18:31;17.70;99.90
14095;DHT22;18096;48.142;16.290;2023-06-10T04:20:56;17.70;99.90
14095;DHT22;18096;48.142;16.290;2023-06-10T04:23:22;17.70;99.90
14095;DHT22;18096;48.142;16.290;2023-06-10T04:25:48;17.70;99.90
14095;DHT22;18096;48.142;16.290;2023-06-10T04:28:13;17.80;99.90
14095;DHT22;18096;48.142;16.290;2023-06-10T04:30:39;17.80;99.90
14095;DHT22;18096;48.142;16.290;2023-06-10T04:33:05;17.80;99.90
14095;DHT22;18096;48.142;16.290;2023-06-10T04:35:32;17.80;99.90
14095;DHT22;18096;48.142;16.290;2023-06-10T04:37:58;17.70;99.90
14095;DHT22;18096;48.142;16.290;2023-06-10T04:40:23;17.70;99.90
14095;DHT22;18096;48.142;16.290;2023-06-10T04:42:49;17.70;99.90
14095;DHT22;18096;48.142;16.290;2023-06-10T04:45:15;17.80;99.90
14095;DHT22;18096;48.142;16.290;2023-06-10T04:47:41;17.80;99.90
14095;DHT22;18096;48.142;16.290;2023-06-10T04:50:06;17.80;99.90
14095;DHT22;18096;48.142;16.290;2023-06-10T04:52:32;17.80;99.90
14095;DHT22;18096;48.142;16.290;2023-06-10T04:54:59;17.80;99.90
14095;DHT22;18096;48.142;16.290;2023-06-10T04:57:25;17.90;99.90
14095;DHT22;18096;48.142;16.290;2023-06-10T04:59:52;17.90;99.90
14095;DHT22;18096;48.142;16.290;2023-06-10T05:02:17;17.90;99.90
14095;DHT22;18096;48.142;16.290;2023-06-10T05:04:43;17.90;99.90
14095;DHT22;18096;48.142;16.290;2023-06-10T05:07:09;17.90;99.90
14095;DHT22;18096;48.142;16.290;2023-06-10T05:09:34;17.90;99.90
14095;DHT22;18096;48.142;16.290;2023-06-10T05:12:00;17.90;99.90
14095;DHT22;18096;48.142;16.290;2023-06-10T05:14:25;18.00;99.90
14095;DHT22;18096;48.142;16.290;2023-06-10T05:16:51;18.00;99.90
14095;DHT22;18096;48.142;16.290;2023-06-10T05:19:17;18.00;99.90
14095;DHT22;18096;48.142;16.290;2023-06-10T05:21:43;18.10;99.90
14095;DHT22;18096;48.142;16.290;2023-06-10T05:24:09;18.10;99.90
14095;DHT22;18096;48.142;16.290;2023-06-10T05:26:35;18.10;99.90
14095;DHT22;18096;48.142;16.290;2023-06-10T05:29:05;18.10;99.90
14095;DHT22;18096;48.142;16.290;2023-06-10T05:31:31;18.20;99.90
14095;DHT22;18096;48.142;16.290;2023-06-10T05:33:57;18.20;99.90
14095;DHT22;18096;48.142;16.290;2023-06-10T05:36:22;18.20;99.90
14095;DHT22;18096;48.142;16.290;2023-06-10T05:38:50;18.20;99.90
14095;DHT22;18096;48.142;16.290;2023-06-10T05:41:16;18.10;99.90
14095;DHT22;18096;48.142;16.290;2023-06-10T05:43:42;18.10;99.90
14095;DHT22;18096;48.142;16.290;2023-06-10T05:46:07;18.10;99.90
14095;DHT22;18096;48.142;16.290;2023-06-10T05:48:33;18.10;99.90
14095;DHT22;18096;48.142;16.290;2023-06-10T05:50:58;18.00;99.90
14095;DHT22;18096;48.142;16.290;2023-06-10T05:53:24;18.00;99.90
14095;DHT22;18096;48.142;16.290;2023-06-10T05:55:50;18.00;99.90
14095;DHT22;18096;48.142;16.290;2023-06-10T05:58:16;18.00;99.90
14095;DHT22;18096;48.142;16.290;2023-06-10T06:00:42;18.00;99.90
14095;DHT22;18096;48.142;16.290;2023-06-10T06:03:08;18.00;99.90
14095;DHT22;18096;48.142;16.290;2023-06-10T06:05:35;18.00;99.90
14095;DHT22;18096;48.142;16.290;2023-06-10T06:08:03;18.00;99.90
14095;DHT22;18096;48.142;16.290;2023-06-10T06:10:29;18.00;99.90
14095;DHT22;18096;48.142;16.290;2023-06-10T06:12:55;18.00;99.90
14095;DHT22;18096;48.142;16.290;2023-06-10T06:15:20;18.00;99.90
14095;DHT22;18096;48.142;16.290;2023-06-10T06:17:46;18.00;99.90
14095;DHT22;18096;48.142;16.290;2023-06-10T06:20:12;18.10;99.90
14095;DHT22;18096;48.142;16.290;2023-06-10T06:22:37;18.10;99.90
14095;DHT22;18096;48.142;16.290;2023-06-10T06:25:04;18.20;99.90
14095;DHT22;18096;48.142;16.290;2023-06-10T06:27:30;18.20;99.90
14095;DHT22;18096;48.142;16.290;2023-06-10T06:29:56;18.20;99.90
14095;DHT22;18096;48.142;16.290;2023-06-10T06:32:21;18.20;99.90
14095;DHT22;18096;48.142;16.290;2023-06-10T06:34:48;18.20;99.90
14095;DHT22;18096;48.142;16.290;2023-06-10T06:37:22;18.20;99.90
14095;DHT22;18096;48.142;16.290;2023-06-10T06:39:52;18.10;99.90
14095;DHT22;18096;48.142;16.290;2023-06-10T06:42:19;18.10;99.90
14095;DHT22;18096;48.142;16.290;2023-06-10T06:44:45;18.10;99.90
14095;DHT22;18096;48.142;16.290;2023-06-10T06:47:11;18.10;99.90
14095;DHT22;18096;48.142;16.290;2023-06-10T06:49:37;18.10;99.90
14095;DHT22;18096;48.142;16.290;2023-06-10T06:52:03;18.10;99.90
14095;DHT22;18096;48.142;16.290;2023-06-10T06:54:29;18.00;99.90
14095;DHT22;18096;48.142;16.290;2023-06-10T06:56:54;18.00;99.90
14095;DHT22;18096;48.142;16.290;2023-06-10T06:59:20;18.00;99.90
14095;DHT22;18096;48.142;16.290;2023-06-10T07:01:46;18.00;99.90
14095;DHT22;18096;48.142;16.290;2023-06-10T07:04:14;18.00;99.90
14095;DHT22;18096;48.142;16.290;2023-06-10T07:06:40;18.00;99.90
14095;DHT22;18096;48.142;16.290;2023-06-10T07:09:07;18.10;99.90
14095;DHT22;18096;48.142;16.290;2023-06-10T07:11:33;18.10;99.90
14095;DHT22;18096;48.142;16.290;2023-06-10T07:13:59;18.10;99.90
14095;DHT22;18096;48.142;16.290;2023-06-10T07:16:25;18.10;99.90
14095;DHT22;18096;48.142;16.290;2023-06-10T07:18:52;18.10;99.90
14095;DHT22;18096;48.142;16.290;2023-06-10T07:21:17;18.10;99.90
14095;DHT22;18096;48.142;16.290;2023-06-10T07:23:43;18.00;99.90
14095;DHT22;18096;48.142;16.290;2023-06-10T07:26:10;18.00;99.90
14095;DHT22;18096;48.142;16.290;2023-06-10T07:28:37;18.10;99.90
14095;DHT22;18096;48.142;16.290;2023-06-10T07:31:03;18.20;99.90
14095;DHT22;18096;48.142;16.290;2023-06-10T07:33:29;18.20;99.90
14095;DHT22;18096;48.142;16.290;2023-06-10T07:35:54;18.20;99.90
14095;DHT22;18096;48.142;16.290;2023-06-10T07:38:20;18.30;99.90
14095;DHT22;18096;48.142;16.290;2023-06-10T07:40:46;18.30;99.90
14095;DHT22;18096;48.142;16.290;2023-06-10T07:43:11;18.40;99.90
14095;DHT22;18096;48.142;16.290;2023-06-10T07:45:39;18.40;99.90
14095;DHT22;18096;48.142;16.290;2023-06-10T07:48:05;18.50;99.90
14095;DHT22;18096;48.142;16.290;2023-06-10T07:50:30;18.50;99.90
14095;DHT22;18096;48.142;16.290;2023-06-10T07:52:56;18.50;99.90
14095;DHT22;18096;48.142;16.290;2023-06-10T07:55:21;18.50;99.90
14095;DHT22;18096;48.142;16.290;2023-06-10T07:57:47;18.60;99.90
14095;DHT22;18096;48.142;16.290;2023-06-10T08:00:13;18.70;99.90
14095;DHT22;18096;48.142;16.290;2023-06-10T08:02:39;18.70;99.90
14095;DHT22;18096;48.142;16.290;2023-06-10T08:05:05;18.70;99.90
14095;DHT22;18096;48.142;16.290;2023-06-10T08:07:30;18.70;99.90
14095;DHT22;18096;48.142;16.290;2023-06-10T08:09:57;18.80;99.90
14095;DHT22;18096;48.142;16.290;2023-06-10T08:12:22;18.80;99.90
14095;DHT22;18096;48.142;16.290;2023-06-10T08:14:48;18.80;99.90
14095;DHT22;18096;48.142;16.290;2023-06-10T08:17:14;18.80;99.90
14095;DHT22;18096;48.142;16.290;2023-06-10T08:19:39;18.80;99.90
14095;DHT22;18096;48.142;16.290;2023-06-10T08:22:05;18.80;99.90
14095;DHT22;18096;48.142;16.290;2023-06-10T08:24:30;18.80;99.90
14095;DHT22;18096;48.142;16.290;2023-06-10T08:26:56;18.80;99.90
14095;DHT22;18096;48.142;16.290;2023-06-10T08:29:23;18.80;99.90
14095;DHT22;18096;48.142;16.290;2023-06-10T08:31:49;18.70;99.90
14095;DHT22;18096;48.142;16.290;2023-06-10T08:34:14;18.70;99.90
14095;DHT22;18096;48.142;16.290;2023-06-10T08:36:40;18.80;99.90
14095;DHT22;18096;48.142;16.290;2023-06-10T08:39:06;18.80;99.90
14095;DHT22;18096;48.142;16.290;2023-06-10T08:41:36;18.80;99.90
14095;DHT22;18096;48.142;16.290;2023-06-10T08:44:17;18.90;99.90
14095;DHT22;18096;48.142;16.290;2023-06-10T08:46:47;18.90;99.90
14095;DHT22;18096;48.142;16.290;2023-06-10T08:49:18;18.90;99.90
14095;DHT22;18096;48.142;16.290;2023-06-10T08:51:50;18.90;99.90
14095;DHT22;18096;48.142;16.290;2023-06-10T08:54:21;19.00;99.90
14095;DHT22;18096;48.142;16.290;2023-06-10T08:56:49;19.00;99.90
14095;DHT22;18096;48.142;16.290;2023-06-10T08:59:18;19.00;99.90
14095;DHT22;18096;48.142;16.290;2023-06-10T09:01:46;19.00;99.90
14095;DHT22;18096;48.142;16.290;2023-06-10T09:04:12;19.00;99.90
14095;DHT22;18096;48.142;16.290;2023-06-10T09:06:38;19.00;99.90
14095;DHT22;18096;48.142;16.290;2023-06-10T09:09:06;19.10;99.90
14095;DHT22;18096;48.142;16.290;2023-06-10T09:11:33;19.10;99.90
14095;DHT22;18096;48.142;16.290;2023-06-10T09:13:58;19.10;99.90
14095;DHT22;18096;48.142;16.290;2023-06-10T09:16:24;19.20;99.90
14095;DHT22;18096;48.142;16.290;2023-06-10T09:18:50;19.20;99.90
14095;DHT22;18096;48.142;16.290;2023-06-10T09:21:24;19.20;99.90
14095;DHT22;18096;48.142;16.290;2023-06-10T09:23:51;19.20;99.90
14095;DHT22;18096;48.142;16.290;2023-06-10T09:26:17;19.20;99.90
14095;DHT22;18096;48.142;16.290;2023-06-10T09:28:49;19.20;99.90
14095;DHT22;18096;48.142;16.290;2023-06-10T09:31:17;19.20;99.90
14095;DHT22;18096;48.142;16.290;2023-06-10T09:33:47;19.20;99.90
14095;DHT22;18096;48.142;16.290;2023-06-10T09:36:21;19.30;99.90
14095;DHT22;18096;48.142;16.290;2023-06-10T09:38:50;19.40;99.90
14095;DHT22;18096;48.142;16.290;2023-06-10T09:41:16;19.40;99.90
14095;DHT22;18096;48.142;16.290;2023-06-10T09:43:44;19.40;99.90
14095;DHT22;18096;48.142;16.290;2023-06-10T09:46:19;19.40;99.90
14095;DHT22;18096;48.142;16.290;2023-06-10T09:48:47;19.50;99.90
14095;DHT22;18096;48.142;16.290;2023-06-10T09:51:14;19.50;99.90
14095;DHT22;18096;48.142;16.290;2023-06-10T09:53:42;19.60;99.90
14095;DHT22;18096;48.142;16.290;2023-06-10T09:56:08;19.60;99.90
14095;DHT22;18096;48.142;16.290;2023-06-10T09:58:37;19.70;99.90
14095;DHT22;18096;48.142;16.290;2023-06-10T10:01:12;19.80;99.90
14095;DHT22;18096;48.142;16.290;2023-06-10T10:03:48;19.80;99.90
14095;DHT22;18096;48.142;16.290;2023-06-10T10:06:15;19.90;99.90
14095;DHT22;18096;48.142;16.290;2023-06-10T10:08:41;20.00;99.90
14095;DHT22;18096;48.142;16.290;2023-06-10T10:11:07;20.00;99.90
14095;DHT22;18096;48.142;16.290;2023-06-10T10:13:34;20.10;99.90
14095;DHT22;18096;48.142;16.290;2023-06-10T10:16:06;20.10;99.90
14095;DHT22;18096;48.142;16.290;2023-06-10T10:18:39;20.20;99.90
14095;DHT22;18096;48.142;16.290;2023-06-10T10:21:11;20.30;99.90
14095;DHT22;18096;48.142;16.290;2023-06-10T10:26:36;20.40;99.90
14095;DHT22;18096;48.142;16.290;2023-06-10T10:31:39;20.50;99.90
14095;DHT22;18096;48.142;16.290;2023-06-10T10:34:13;20.60;99.90
14095;DHT22;18096;48.142;16.290;2023-06-10T10:36:41;20.60;99.90
14095;DHT22;18096;48.142;16.290;2023-06-10T10:39:07;20.60;99.90
14095;DHT22;18096;48.142;16.290;2023-06-10T10:41:34;20.60;99.90
14095;DHT22;18096;48.142;16.290;2023-06-10T10:44:01;20.60;99.90
14095;DHT22;18096;48.142;16.290;2023-06-10T10:46:30;20.70;99.90
14095;DHT22;18096;48.142;16.290;2023-06-10T10:49:07;20.70;99.90
14095;DHT22;18096;48.142;16.290;2023-06-10T10:51:36;20.70;99.90
14095;DHT22;18096;48.142;16.290;2023-06-10T10:54:14;20.70;99.90
14095;DHT22;18096;48.142;16.290;2023-06-10T10:59:54;20.80;99.90
14095;DHT22;18096;48.142;16.290;2023-06-10T11:05:02;20.90;99.90
14095;DHT22;18096;48.142;16.290;2023-06-10T11:07:31;20.90;99.90
14095;DHT22;18096;48.142;16.290;2023-06-10T11:10:02;20.90;99.90
14095;DHT22;18096;48.142;16.290;2023-06-10T11:15:18;21.00;99.90
14095;DHT22;18096;48.142;16.290;2023-06-10T11:31:25;21.40;99.90
14095;DHT22;18096;48.142;16.290;2023-06-10T11:33:55;21.40;99.90
14095;DHT22;18096;48.142;16.290;2023-06-10T11:36:22;21.40;99.90
14095;DHT22;18096;48.142;16.290;2023-06-10T11:38:48;21.50;99.90
14095;DHT22;18096;48.142;16.290;2023-06-10T11:41:14;21.50;99.90
14095;DHT22;18096;48.142;16.290;2023-06-10T11:43:44;21.50;99.90
14095;DHT22;18096;48.142;16.290;2023-06-10T11:46:14;21.70;99.90
14095;DHT22;18096;48.142;16.290;2023-06-10T11:48:49;21.70;99.90
14095;DHT22;18096;48.142;16.290;2023-06-10T11:51:14;21.70;99.90
14095;DHT22;18096;48.142;16.290;2023-06-10T11:53:40;21.70;99.90
14095;DHT22;18096;48.142;16.290;2023-06-10T11:56:06;21.70;99.90
14095;DHT22;18096;48.142;16.290;2023-06-10T11:58:31;21.60;99.90
14095;DHT22;18096;48.142;16.290;2023-06-10T12:00:57;21.60;99.90
14095;DHT22;18096;48.142;16.290;2023-06-10T12:03:23;21.60;99.90
14095;DHT22;18096;48.142;16.290;2023-06-10T12:08:22;21.50;99.90
14095;DHT22;18096;48.142;16.290;2023-06-10T12:10:48;21.50;99.90
14095;DHT22;18096;48.142;16.290;2023-06-10T12:13:13;21.60;99.90
14095;DHT22;18096;48.142;16.290;2023-06-10T12:15:39;21.60;99.90
14095;DHT22;18096;48.142;16.290;2023-06-10T12:18:05;21.70;99.90
14095;DHT22;18096;48.142;16.290;2023-06-10T12:20:32;21.70;99.90
14095;DHT22;18096;48.142;16.290;2023-06-10T12:23:00;21.70;99.90
14095;DHT22;18096;48.142;16.290;2023-06-10T12:25:28;21.80;99.90
14095;DHT22;18096;48.142;16.290;2023-06-10T12:27:55;21.90;99.90
14095;DHT22;18096;48.142;16.290;2023-06-10T12:30:23;22.00;99.90
14095;DHT22;18096;48.142;16.290;2023-06-10T12:32:51;22.10;99.90
14095;DHT22;18096;48.142;16.290;2023-06-10T12:35:22;22.10;99.90
14095;DHT22;18096;48.142;16.290;2023-06-10T12:38:06;22.10;99.90
14095;DHT22;18096;48.142;16.290;2023-06-10T12:40:37;22.10;99.90
14095;DHT22;18096;48.142;16.290;2023-06-10T12:43:06;22.10;99.90
14095;DHT22;18096;48.142;16.290;2023-06-10T12:45:36;22.10;99.90
14095;DHT22;18096;48.142;16.290;2023-06-10T12:48:16;22.10;99.90
14095;DHT22;18096;48.142;16.290;2023-06-10T12:50:43;22.10;99.90
14095;DHT22;18096;48.142;16.290;2023-06-10T12:53:10;22.00;99.90
14095;DHT22;18096;48.142;16.290;2023-06-10T12:55:39;22.00;99.90
14095;DHT22;18096;48.142;16.290;2023-06-10T12:58:05;21.90;99.90
14095;DHT22;18096;48.142;16.290;2023-06-10T13:00:30;21.90;99.90
14095;DHT22;18096;48.142;16.290;2023-06-10T13:02:59;21.80;99.90
14095;DHT22;18096;48.142;16.290;2023-06-10T13:05:25;21.80;99.90
14095;DHT22;18096;48.142;16.290;2023-06-10T13:07:51;21.70;99.90
14095;DHT22;18096;48.142;16.290;2023-06-10T13:10:17;21.70;99.90
14095;DHT22;18096;48.142;16.290;2023-06-10T13:12:43;21.60;99.90
14095;DHT22;18096;48.142;16.290;2023-06-10T13:15:09;21.40;99.90
14095;DHT22;18096;48.142;16.290;2023-06-10T13:17:35;21.20;99.90
14095;DHT22;18096;48.142;16.290;2023-06-10T13:20:03;20.90;99.90
14095;DHT22;18096;48.142;16.290;2023-06-10T13:22:30;20.70;99.90
14095;DHT22;18096;48.142;16.290;2023-06-10T13:25:01;20.50;99.90
14095;DHT22;18096;48.142;16.290;2023-06-10T13:27:26;20.40;99.90
14095;DHT22;18096;48.142;16.290;2023-06-10T13:29:52;20.30;99.90
14095;DHT22;18096;48.142;16.290;2023-06-10T13:32:18;20.20;99.90
14095;DHT22;18096;48.142;16.290;2023-06-10T13:34:44;20.20;99.90
14095;DHT22;18096;48.142;16.290;2023-06-10T13:37:09;20.20;99.90
14095;DHT22;18096;48.142;16.290;2023-06-10T13:39:35;20.20;99.90
14095;DHT22;18096;48.142;16.290;2023-06-10T13:42:01;20.20;99.90
14095;DHT22;18096;48.142;16.290;2023-06-10T13:44:27;20.20;99.90
14095;DHT22;18096;48.142;16.290;2023-06-10T13:46:56;20.20;99.90
14095;DHT22;18096;48.142;16.290;2023-06-10T13:49:21;20.20;99.90
14095;DHT22;18096;48.142;16.290;2023-06-10T13:51:47;20.30;99.90
14095;DHT22;18096;48.142;16.290;2023-06-10T13:54:13;20.30;99.90
14095;DHT22;18096;48.142;16.290;2023-06-10T13:56:41;20.30;99.90
14095;DHT22;18096;48.142;16.290;2023-06-10T13:59:06;20.30;99.90
14095;DHT22;18096;48.142;16.290;2023-06-10T14:01:32;20.30;99.90
14095;DHT22;18096;48.142;16.290;2023-06-10T14:03:58;20.30;99.90
14095;DHT22;18096;48.142;16.290;2023-06-10T14:06:24;20.30;99.90
14095;DHT22;18096;48.142;16.290;2023-06-10T14:08:49;20.30;99.90
14095;DHT22;18096;48.142;16.290;2023-06-10T14:11:15;20.30;99.90
14095;DHT22;18096;48.142;16.290;2023-06-10T14:13:41;20.40;99.90
14095;DHT22;18096;48.142;16.290;2023-06-10T14:16:06;20.30;99.90
14095;DHT22;18096;48.142;16.290;2023-06-10T14:18:32;20.30;99.90
14095;DHT22;18096;48.142;16.290;2023-06-10T14:20:58;20.30;99.90
14095;DHT22;18096;48.142;16.290;2023-06-10T14:23:23;20.30;99.90
14095;DHT22;18096;48.142;16.290;2023-06-10T14:25:50;20.30;99.90
14095;DHT22;18096;48.142;16.290;2023-06-10T14:28:16;20.30;99.90
14095;DHT22;18096;48.142;16.290;2023-06-10T14:30:42;20.30;99.90
14095;DHT22;18096;48.142;16.290;2023-06-10T14:33:07;20.30;99.90
14095;DHT22;18096;48.142;16.290;2023-06-10T14:35:33;20.30;99.90
14095;DHT22;18096;48.142;16.290;2023-06-10T14:37:58;20.30;99.90
14095;DHT22;18096;48.142;16.290;2023-06-10T14:40:24;20.30;99.90
14095;DHT22;18096;48.142;16.290;2023-06-10T14:42:51;20.30;99.90
14095;DHT22;18096;48.142;16.290;2023-06-10T14:45:17;20.30;99.90
14095;DHT22;18096;48.142;16.290;2023-06-10T14:47:43;20.30;99.90
14095;DHT22;18096;48.142;16.290;2023-06-10T14:50:09;20.30;99.90
14095;DHT22;18096;48.142;16.290;2023-06-10T14:52:34;20.30;99.90
14095;DHT22;18096;48.142;16.290;2023-06-10T14:55:00;20.30;99.90
14095;DHT22;18096;48.142;16.290;2023-06-10T14:57:25;20.30;99.90
14095;DHT22;18096;48.142;16.290;2023-06-10T14:59:51;20.20;99.90
14095;DHT22;18096;48.142;16.290;2023-06-10T15:02:17;20.20;99.90
14095;DHT22;18096;48.142;16.290;2023-06-10T15:04:42;20.20;99.90
14095;DHT22;18096;48.142;16.290;2023-06-10T15:07:08;20.20;99.90
14095;DHT22;18096;48.142;16.290;2023-06-10T15:09:34;20.20;99.90
14095;DHT22;18096;48.142;16.290;2023-06-10T15:11:59;20.30;99.90
14095;DHT22;18096;48.142;16.290;2023-06-10T15:14:25;20.20;99.90
14095;DHT22;18096;48.142;16.290;2023-06-10T15:16:51;20.30;99.90
14095;DHT22;18096;48.142;16.290;2023-06-10T15:19:17;20.30;99.90
14095;DHT22;18096;48.142;16.290;2023-06-10T15:21:42;20.40;99.90
14095;DHT22;18096;48.142;16.290;2023-06-10T15:24:08;20.40;99.90
14095;DHT22;18096;48.142;16.290;2023-06-10T15:26:34;20.50;99.90
14095;DHT22;18096;48.142;16.290;2023-06-10T15:28:59;20.50;99.90
14095;DHT22;18096;48.142;16.290;2023-06-10T15:31:30;20.60;99.90
14095;DHT22;18096;48.142;16.290;2023-06-10T15:33:55;20.60;99.90
14095;DHT22;18096;48.142;16.290;2023-06-10T15:36:21;20.70;99.90
14095;DHT22;18096;48.142;16.290;2023-06-10T15:38:47;20.70;99.90
14095;DHT22;18096;48.142;16.290;2023-06-10T15:41:13;20.80;99.90
14095;DHT22;18096;48.142;16.290;2023-06-10T15:43:39;20.80;99.90